Time;durP1;ratioP1;P1;durP2;ratioP2;P2;SDS_P1;SDS_P2;PMS_P1;PMS_P2;Temp;Humidity;BMP_temperature;BMP_pressure;BME280_temperature;BME280_humidity;BME280_pressure;Samples;Min_cycle;Max_cycle;Signal;HPM_P1;HPM_P2
2023/11/25 00:00:26;;;;;;;0.32;0.30;;;0.80;93.20;;;;;;4983812;28;20026;-77
2023/11/25 00:02:53;;;;;;;0.22;0.22;;;0.80;93.70;;;;;;4990183;28;20065;-77
2023/11/25 00:05:19;;;;;;;1.58;0.40;;;0.80;93.20;;;;;;4987778;28;20030;-77
2023/11/25 00:07:45;;;;;;;0.45;0.30;;;0.80;93.10;;;;;;4988535;28;20028;-77
2023/11/25 00:10:11;;;;;;;0.45;0.45;;;0.90;93.10;;;;;;4989769;28;20390;-77
2023/11/25 00:12:36;;;;;;;0.47;0.35;;;0.90;93.10;;;;;;4991780;28;20125;-77
2023/11/25 00:15:03;;;;;;;1.17;0.50;;;0.80;92.80;;;;;;4990116;28;20050;-77
2023/11/25 00:17:30;;;;;;;0.50;0.30;;;0.80;93.10;;;;;;4989615;28;20049;-77
2023/11/25 00:19:56;;;;;;;0.30;0.30;;;0.70;93.40;;;;;;4990164;28;20065;-77
2023/11/25 00:22:22;;;;;;;1.92;0.30;;;0.70;93.60;;;;;;4989048;28;20030;-77
2023/11/25 00:24:48;;;;;;;0.35;0.32;;;0.70;93.10;;;;;;4990844;28;20026;-77
2023/11/25 00:27:14;;;;;;;0.30;0.25;;;0.70;93.50;;;;;;4989141;28;20034;-77
2023/11/25 00:29:40;;;;;;;0.80;0.40;;;0.80;92.90;;;;;;4988570;28;20096;-77
2023/11/25 00:32:06;;;;;;;0.55;0.35;;;0.70;93.00;;;;;;4989695;28;20038;-77
2023/11/25 00:34:31;;;;;;;0.28;0.28;;;0.80;92.50;;;;;;4989220;28;20030;-77
2023/11/25 00:36:56;;;;;;;0.75;0.60;;;0.70;92.80;;;;;;4989029;28;20037;-77
2023/11/25 00:39:23;;;;;;;0.77;0.35;;;0.70;92.90;;;;;;4993873;28;20038;-77
2023/11/25 00:41:49;;;;;;;0.75;0.50;;;0.70;93.30;;;;;;4993655;28;20030;-77
2023/11/25 00:44:14;;;;;;;0.57;0.30;;;0.60;93.40;;;;;;4993506;28;20085;-77
2023/11/25 00:46:40;;;;;;;0.30;0.30;;;0.60;93.60;;;;;;4993769;28;20030;-77
2023/11/25 00:49:06;;;;;;;0.60;0.35;;;0.40;93.80;;;;;;5000910;28;20042;-77
2023/11/25 00:51:31;;;;;;;0.65;0.43;;;0.50;93.90;;;;;;4993628;28;20133;-77
2023/11/25 00:53:57;;;;;;;0.93;0.40;;;0.40;94.00;;;;;;4994722;28;20466;-77
2023/11/25 00:56:23;;;;;;;0.98;0.47;;;0.30;94.20;;;;;;4993072;28;20040;-77
2023/11/25 00:58:49;;;;;;;0.32;0.25;;;0.30;94.50;;;;;;4987436;28;20052;-77
2023/11/25 01:01:14;;;;;;;0.82;0.50;;;0.20;94.50;;;;;;4991019;28;20034;-77
2023/11/25 01:03:40;;;;;;;0.40;0.40;;;0.30;94.50;;;;;;4991559;28;20045;-77
2023/11/25 01:06:07;;;;;;;0.35;0.20;;;0.20;94.60;;;;;;4993661;28;20030;-77
2023/11/25 01:08:32;;;;;;;0.75;0.38;;;0.20;94.70;;;;;;4993085;28;20038;-77
2023/11/25 01:10:58;;;;;;;0.50;0.28;;;0.20;94.60;;;;;;4995150;28;20061;-77
2023/11/25 01:13:24;;;;;;;0.95;0.57;;;0.20;94.70;;;;;;4992144;28;20034;-77
2023/11/25 01:15:51;;;;;;;1.30;0.50;;;0.30;94.60;;;;;;4994688;28;20027;-77
2023/11/25 01:18:17;;;;;;;3.53;0.65;;;0.40;94.50;;;;;;4993353;28;20038;-77
2023/11/25 01:20:42;;;;;;;0.10;0.10;;;0.30;94.40;;;;;;4995425;28;20474;-77
2023/11/25 01:23:08;;;;;;;3.47;0.32;;;0.30;94.50;;;;;;4995309;28;20034;-77
2023/11/25 01:25:33;;;;;;;0.43;0.43;;;0.40;94.60;;;;;;4994740;28;20387;-77
2023/11/25 01:27:59;;;;;;;0.30;0.30;;;0.30;94.40;;;;;;4995275;28;20038;-77
2023/11/25 01:30:24;;;;;;;0.30;0.25;;;0.30;94.50;;;;;;4994258;28;20395;-77
2023/11/25 01:32:50;;;;;;;0.68;0.38;;;0.20;94.60;;;;;;4993445;28;20533;-77
2023/11/25 01:35:15;;;;;;;0.57;0.40;;;0.10;94.90;;;;;;4993915;28;20031;-77
2023/11/25 01:37:41;;;;;;;0.40;0.40;;;0.10;95.10;;;;;;4995737;28;20034;-77
2023/11/25 01:40:10;;;;;;;0.30;0.30;;;0.10;95.20;;;;;;4995916;28;20034;-77
2023/11/25 01:42:36;;;;;;;0.47;0.45;;;0.10;95.30;;;;;;4993162;28;20356;-77
2023/11/25 01:45:02;;;;;;;1.23;0.30;;;0.00;95.30;;;;;;4992715;28;20029;-77
2023/11/25 01:47:28;;;;;;;0.30;0.30;;;0.00;95.40;;;;;;4994189;28;20064;-77
2023/11/25 01:49:54;;;;;;;1.17;0.28;;;0.00;95.70;;;;;;4994302;28;20412;-77
2023/11/25 01:52:20;;;;;;;0.47;0.30;;;-3276.70;95.80;;;;;;4995860;28;20049;-77
2023/11/25 01:54:45;;;;;;;0.25;0.22;;;-3276.60;96.10;;;;;;4997815;28;20026;-77
2023/11/25 01:57:12;;;;;;;1.10;0.50;;;-3276.70;96.20;;;;;;4988845;28;20443;-77
2023/11/25 01:59:39;;;;;;;0.30;0.30;;;-3276.60;96.30;;;;;;4994101;28;20030;-77
2023/11/25 02:02:05;;;;;;;1.77;0.43;;;-3276.60;96.40;;;;;;4997164;28;20054;-77
2023/11/25 02:04:32;;;;;;;0.98;0.38;;;-3276.60;96.40;;;;;;4993355;28;20459;-77
2023/11/25 02:06:58;;;;;;;0.22;0.22;;;-3276.60;96.70;;;;;;4990794;28;20482;-77
2023/11/25 02:09:24;;;;;;;1.38;0.30;;;-3276.60;96.60;;;;;;4994971;28;20065;-77
2023/11/25 02:12:01;;;;;;;0.40;0.40;;;-3276.60;96.70;;;;;;4995011;28;20566;-77
2023/11/25 02:14:27;;;;;;;2.00;0.25;;;-3276.60;96.70;;;;;;4991783;28;20030;-77
2023/11/25 02:16:53;;;;;;;0.10;0.10;;;-3276.70;96.80;;;;;;4992846;28;20439;-77
2023/11/25 02:19:21;;;;;;;0.30;0.30;;;-3276.70;96.70;;;;;;4992381;28;20037;-78
2023/11/25 02:21:46;;;;;;;0.57;0.40;;;-3276.70;96.80;;;;;;4992865;28;20412;-77
2023/11/25 02:24:12;;;;;;;0.55;0.32;;;-3276.70;96.80;;;;;;4991943;28;20045;-77
2023/11/25 02:26:38;;;;;;;0.47;0.30;;;-3276.70;96.80;;;;;;4993150;28;20038;-77
2023/11/25 02:29:05;;;;;;;2.20;0.47;;;-3276.70;96.90;;;;;;4990483;28;20041;-77
2023/11/25 02:31:31;;;;;;;0.60;0.38;;;-3276.70;96.90;;;;;;4990751;28;20038;-77
2023/11/25 02:33:57;;;;;;;0.55;0.30;;;0.00;96.90;;;;;;4992031;28;20022;-77
2023/11/25 02:36:23;;;;;;;0.32;0.22;;;0.00;96.90;;;;;;4988816;28;20483;-77
2023/11/25 02:38:49;;;;;;;1.63;0.63;;;0.00;96.90;;;;;;4991744;28;20081;-77
2023/11/25 02:41:15;;;;;;;0.50;0.35;;;0.00;96.90;;;;;;4987911;28;20416;-77
2023/11/25 02:43:40;;;;;;;0.20;0.20;;;0.00;96.90;;;;;;4988831;28;20038;-77
2023/11/25 02:46:06;;;;;;;0.93;0.28;;;0.00;96.90;;;;;;4994583;28;20038;-77
2023/11/25 02:48:32;;;;;;;0.45;0.30;;;0.00;96.90;;;;;;4988341;28;20264;-77
2023/11/25 02:50:57;;;;;;;1.10;0.35;;;0.00;97.00;;;;;;4990285;28;20550;-78
2023/11/25 02:53:23;;;;;;;0.20;0.20;;;0.00;96.90;;;;;;4991096;28;20042;-77
2023/11/25 02:55:49;;;;;;;2.05;0.60;;;0.00;96.80;;;;;;4991816;28;20061;-77
2023/11/25 02:58:15;;;;;;;0.30;0.30;;;0.10;96.60;;;;;;4985223;28;20022;-77
2023/11/25 03:00:40;;;;;;;1.52;0.55;;;0.10;96.60;;;;;;4988337;28;20374;-77
2023/11/25 03:03:12;;;;;;;0.63;0.30;;;0.10;96.40;;;;;;4990685;28;20026;-78
2023/11/25 03:05:41;;;;;;;0.40;0.35;;;0.10;96.20;;;;;;5004448;28;20061;-78
2023/11/25 03:08:09;;;;;;;0.28;0.28;;;0.20;95.80;;;;;;5005617;28;20510;-77
2023/11/25 03:10:35;;;;;;;0.30;0.30;;;0.20;95.70;;;;;;4992390;28;20034;-78
2023/11/25 03:13:01;;;;;;;1.52;0.57;;;0.30;95.50;;;;;;4986092;28;20379;-78
2023/11/25 03:15:26;;;;;;;0.38;0.38;;;0.30;95.40;;;;;;4988895;28;20050;-77
2023/11/25 03:17:52;;;;;;;0.20;0.20;;;0.30;95.20;;;;;;4988275;28;20032;-77
2023/11/25 03:20:17;;;;;;;2.15;0.52;;;0.30;95.20;;;;;;4995683;28;20038;-77
2023/11/25 03:22:43;;;;;;;1.55;0.35;;;0.30;95.30;;;;;;4991824;28;20034;-77
2023/11/25 03:25:10;;;;;;;1.77;0.73;;;0.30;95.20;;;;;;4990022;28;20033;-78
2023/11/25 03:27:35;;;;;;;0.52;0.32;;;0.40;95.10;;;;;;4990809;28;20029;-77
2023/11/25 03:30:02;;;;;;;0.80;0.45;;;0.30;95.20;;;;;;4989396;28;20034;-77
2023/11/25 03:32:29;;;;;;;0.28;0.28;;;0.30;95.20;;;;;;4987789;28;20073;-78
2023/11/25 03:34:55;;;;;;;0.80;0.38;;;0.30;95.20;;;;;;4988759;28;20034;-79
2023/11/25 03:37:21;;;;;;;0.82;0.43;;;0.30;95.20;;;;;;4985858;28;20042;-77
2023/11/25 03:39:46;;;;;;;1.08;0.30;;;0.30;95.20;;;;;;4991671;28;20045;-77
2023/11/25 03:42:12;;;;;;;1.30;0.20;;;0.30;95.20;;;;;;4982803;28;20041;-77
2023/11/25 03:44:37;;;;;;;0.75;0.35;;;0.40;95.30;;;;;;4981552;28;20038;-77
2023/11/25 03:47:06;;;;;;;0.50;0.30;;;0.40;95.50;;;;;;4975607;28;20061;-77
2023/11/25 03:49:31;;;;;;;1.15;0.50;;;0.40;95.50;;;;;;4982101;28;20054;-77
2023/11/25 03:51:57;;;;;;;0.50;0.32;;;0.40;95.70;;;;;;4989255;28;20041;-77
2023/11/25 03:54:22;;;;;;;1.27;0.80;;;0.40;95.80;;;;;;4991029;28;20121;-77
2023/11/25 03:56:48;;;;;;;0.30;0.30;;;0.40;96.00;;;;;;4990200;28;20082;-77
2023/11/25 03:59:14;;;;;;;2.67;0.52;;;0.50;96.00;;;;;;4997804;28;20042;-77
2023/11/25 04:01:42;;;;;;;0.40;0.40;;;0.50;96.10;;;;;;4988791;28;20101;-77
2023/11/25 04:04:09;;;;;;;0.40;0.30;;;0.60;96.20;;;;;;4989552;28;20450;-78
2023/11/25 04:06:36;;;;;;;1.75;0.30;;;0.70;96.20;;;;;;4987415;28;20038;-78
2023/11/25 04:09:01;;;;;;;1.63;0.60;;;0.80;96.10;;;;;;4989873;28;20066;-77
2023/11/25 04:11:27;;;;;;;0.73;0.40;;;0.80;96.30;;;;;;4992664;28;20080;-78
2023/11/25 04:13:56;;;;;;;3.67;0.88;;;0.90;96.30;;;;;;4990868;28;20517;-78
2023/11/25 04:16:22;;;;;;;0.63;0.38;;;1.00;96.30;;;;;;4992541;28;20045;-78
2023/11/25 04:18:47;;;;;;;4.63;0.43;;;1.10;96.20;;;;;;4995056;28;20031;-78
2023/11/25 04:21:13;;;;;;;5.43;1.70;;;1.30;96.50;;;;;;4991515;28;20394;-78
2023/11/25 04:23:38;;;;;;;0.30;0.30;;;1.30;96.50;;;;;;4994041;28;20058;-77
2023/11/25 04:26:05;;;;;;;1.67;0.70;;;1.50;96.60;;;;;;4994242;28;20117;-77
2023/11/25 04:28:33;;;;;;;0.35;0.30;;;1.40;96.70;;;;;;4995013;28;20039;-77
2023/11/25 04:30:59;;;;;;;0.57;0.45;;;1.40;97.10;;;;;;4993574;28;20088;-77
2023/11/25 04:33:25;;;;;;;0.85;0.40;;;1.30;97.10;;;;;;4991922;28;20066;-77
2023/11/25 04:35:51;;;;;;;1.10;0.52;;;1.30;97.30;;;;;;4993982;28;20510;-77
2023/11/25 04:38:17;;;;;;;0.63;0.40;;;1.30;97.50;;;;;;4994212;28;20057;-77
2023/11/25 04:40:42;;;;;;;0.65;0.52;;;1.20;97.60;;;;;;4995030;28;20081;-77
2023/11/25 04:43:08;;;;;;;2.75;0.80;;;1.10;97.80;;;;;;4990378;28;20041;-77
2023/11/25 04:45:34;;;;;;;0.93;0.43;;;1.10;98.00;;;;;;4995916;28;20065;-77
2023/11/25 04:48:00;;;;;;;1.45;0.50;;;1.10;98.10;;;;;;4992090;28;20027;-77
2023/11/25 04:50:26;;;;;;;1.02;0.45;;;1.00;98.30;;;;;;4993075;28;20090;-77
2023/11/25 04:52:53;;;;;;;0.65;0.45;;;1.10;98.50;;;;;;4995968;28;20429;-77
2023/11/25 04:55:21;;;;;;;1.20;0.47;;;1.10;98.50;;;;;;4995390;28;20033;-77
2023/11/25 04:57:47;;;;;;;0.57;0.40;;;1.10;98.70;;;;;;4990465;28;20538;-77
2023/11/25 05:00:14;;;;;;;0.95;0.50;;;1.10;98.70;;;;;;4992067;28;20033;-77
2023/11/25 05:02:43;;;;;;;3.47;0.90;;;1.10;98.70;;;;;;4994756;28;20041;-77
2023/11/25 05:05:09;;;;;;;0.65;0.52;;;1.10;98.80;;;;;;4993016;28;20038;-77
2023/11/25 05:07:35;;;;;;;0.65;0.40;;;1.10;98.80;;;;;;4993527;28;20387;-77
2023/11/25 05:10:01;;;;;;;1.95;0.40;;;1.10;98.80;;;;;;4996817;28;20168;-77
2023/11/25 05:12:27;;;;;;;1.85;0.57;;;1.10;98.90;;;;;;4994375;28;20124;-77
2023/11/25 05:14:53;;;;;;;0.82;0.60;;;1.10;98.90;;;;;;4993086;28;20026;-77
2023/11/25 05:17:19;;;;;;;1.33;0.50;;;1.10;98.90;;;;;;4989259;28;20037;-77
2023/11/25 05:19:44;;;;;;;0.65;0.40;;;1.20;98.90;;;;;;4993093;28;20030;-77
2023/11/25 05:22:10;;;;;;;0.47;0.30;;;1.20;98.90;;;;;;4995505;28;20103;-77
2023/11/25 05:24:36;;;;;;;2.30;0.88;;;1.20;99.00;;;;;;4995551;28;20034;-77
2023/11/25 05:27:02;;;;;;;0.57;0.30;;;1.30;99.00;;;;;;4995329;28;20065;-75
2023/11/25 05:29:27;;;;;;;1.13;0.55;;;1.20;99.00;;;;;;4991079;28;20061;-75
2023/11/25 05:31:53;;;;;;;1.08;0.52;;;1.30;99.10;;;;;;4991081;28;20487;-75
2023/11/25 05:34:20;;;;;;;2.15;0.47;;;1.30;99.20;;;;;;4989900;28;20035;-76
2023/11/25 05:36:46;;;;;;;2.05;0.43;;;1.40;99.30;;;;;;4988073;28;20117;-76
2023/11/25 05:39:13;;;;;;;4.63;0.77;;;1.40;99.40;;;;;;4992903;28;20121;-76
2023/11/25 05:41:39;;;;;;;0.32;0.32;;;1.50;99.50;;;;;;4990204;28;20360;-76
2023/11/25 05:44:07;;;;;;;1.58;0.40;;;1.60;99.40;;;;;;4992631;28;20034;-75
2023/11/25 05:46:33;;;;;;;2.63;0.60;;;1.60;99.40;;;;;;4991552;28;20146;-76
2023/11/25 05:48:59;;;;;;;1.35;0.60;;;1.70;99.60;;;;;;4987930;28;20117;-76
2023/11/25 05:51:33;;;;;;;0.65;0.60;;;1.70;99.60;;;;;;4990873;28;20046;-76
2023/11/25 05:53:58;;;;;;;1.23;0.93;;;1.70;99.70;;;;;;4994011;28;20058;-76
2023/11/25 05:56:26;;;;;;;1.38;0.50;;;1.80;99.80;;;;;;4993048;28;20514;-76
2023/11/25 05:58:53;;;;;;;0.30;0.30;;;1.90;99.80;;;;;;4987087;28;20582;-76
2023/11/25 06:01:19;;;;;;;1.35;0.30;;;1.80;99.70;;;;;;4987008;28;20035;-76
2023/11/25 06:03:46;;;;;;;1.17;0.47;;;1.90;99.80;;;;;;4992140;28;20022;-76
2023/11/25 06:06:11;;;;;;;2.28;0.60;;;1.90;99.80;;;;;;4987509;28;20026;-76
2023/11/25 06:08:37;;;;;;;2.92;0.40;;;2.00;99.90;;;;;;4993249;28;20494;-76
2023/11/25 06:11:03;;;;;;;0.30;0.20;;;1.90;99.80;;;;;;4996295;28;20042;-76
2023/11/25 06:13:29;;;;;;;0.65;0.30;;;1.90;99.80;;;;;;4992286;28;20026;-76
2023/11/25 06:15:56;;;;;;;0.57;0.40;;;1.90;99.90;;;;;;4988438;28;20030;-76
2023/11/25 06:18:22;;;;;;;0.50;0.20;;;1.90;99.90;;;;;;4992393;28;20085;-76
2023/11/25 06:20:47;;;;;;;1.85;0.57;;;1.90;99.90;;;;;;4991148;28;20026;-76
2023/11/25 06:23:14;;;;;;;1.60;0.60;;;1.90;99.90;;;;;;4992486;28;20081;-76
2023/11/25 06:25:42;;;;;;;2.78;0.68;;;2.00;99.90;;;;;;4993233;28;20050;-76
2023/11/25 06:28:09;;;;;;;0.20;0.20;;;2.00;99.90;;;;;;4989464;28;20108;-75
2023/11/25 06:30:34;;;;;;;0.40;0.40;;;2.10;99.90;;;;;;4984487;28;20022;-75
2023/11/25 06:33:00;;;;;;;0.57;0.50;;;2.10;99.90;;;;;;4989575;28;20430;-75
2023/11/25 06:35:26;;;;;;;0.20;0.20;;;2.10;99.90;;;;;;4991340;28;20073;-75
2023/11/25 06:37:51;;;;;;;1.00;0.30;;;2.20;99.90;;;;;;4990648;28;20493;-76
2023/11/25 06:40:17;;;;;;;0.20;0.20;;;2.30;99.90;;;;;;4985790;28;20114;-76
2023/11/25 06:42:42;;;;;;;1.00;0.32;;;2.30;99.90;;;;;;4989588;28;20026;-75
2023/11/25 06:45:08;;;;;;;1.75;0.40;;;2.40;99.90;;;;;;4988432;28;20039;-75
2023/11/25 06:47:34;;;;;;;0.65;0.30;;;2.50;99.90;;;;;;4988577;28;20037;-76
2023/11/25 06:50:00;;;;;;;3.95;0.65;;;2.40;99.90;;;;;;4990797;28;20057;-76
2023/11/25 06:52:27;;;;;;;1.70;0.68;;;2.40;99.90;;;;;;4988576;28;20023;-76
2023/11/25 06:54:52;;;;;;;2.40;1.08;;;2.30;99.90;;;;;;4988622;28;20518;-76
2023/11/25 06:57:19;;;;;;;2.95;0.30;;;2.40;99.90;;;;;;4987702;28;20042;-76
2023/11/25 06:59:45;;;;;;;0.20;0.20;;;2.40;99.90;;;;;;4989179;28;20034;-76
2023/11/25 07:02:13;;;;;;;0.73;0.32;;;2.40;99.90;;;;;;4989557;28;20096;-75
2023/11/25 07:04:39;;;;;;;0.28;0.20;;;2.50;99.90;;;;;;4990410;28;20022;-75
2023/11/25 07:07:05;;;;;;;1.73;0.65;;;2.50;99.90;;;;;;4988423;28;20098;-74
2023/11/25 07:09:30;;;;;;;0.73;0.50;;;2.40;99.90;;;;;;4987614;28;20046;-74
2023/11/25 07:11:56;;;;;;;0.55;0.20;;;2.30;99.90;;;;;;4990662;28;20444;-75
2023/11/25 07:14:22;;;;;;;0.22;0.22;;;2.30;99.90;;;;;;4984892;28;20046;-74
2023/11/25 07:16:48;;;;;;;0.43;0.22;;;2.20;99.90;;;;;;4987275;28;20038;-75
2023/11/25 07:19:13;;;;;;;0.10;0.10;;;2.10;99.90;;;;;;4989167;28;20495;-75
2023/11/25 07:21:38;;;;;;;0.88;0.30;;;2.10;99.90;;;;;;4983692;28;20041;-75
2023/11/25 07:24:05;;;;;;;0.28;0.20;;;2.10;99.90;;;;;;4990859;28;20541;-75
2023/11/25 07:26:31;;;;;;;0.30;0.30;;;2.10;99.90;;;;;;4990204;28;20026;-75
2023/11/25 07:28:56;;;;;;;0.88;0.40;;;2.10;99.90;;;;;;4985997;28;20494;-75
2023/11/25 07:31:22;;;;;;;0.38;0.38;;;2.20;99.90;;;;;;4988873;28;20038;-75
2023/11/25 07:33:49;;;;;;;0.38;0.30;;;2.20;99.90;;;;;;4991876;28;20030;-75
2023/11/25 07:36:15;;;;;;;0.30;0.30;;;2.30;99.90;;;;;;4990683;28;20057;-75
2023/11/25 07:38:41;;;;;;;0.50;0.40;;;2.30;99.90;;;;;;4989628;28;20093;-75
2023/11/25 07:41:15;;;;;;;1.65;0.30;;;2.30;99.90;;;;;;4987923;28;20038;-75
2023/11/25 07:43:41;;;;;;;0.68;0.38;;;2.30;99.90;;;;;;4990539;28;20529;-74
2023/11/25 07:46:07;;;;;;;1.35;0.60;;;2.30;99.90;;;;;;4990020;28;20037;-75
2023/11/25 07:48:33;;;;;;;0.73;0.50;;;2.30;99.90;;;;;;4986411;28;20108;-75
2023/11/25 07:50:58;;;;;;;0.90;0.43;;;2.30;99.90;;;;;;4985922;28;20479;-75
2023/11/25 07:53:24;;;;;;;1.65;0.63;;;2.40;99.90;;;;;;4990576;28;20121;-75
2023/11/25 07:55:51;;;;;;;0.52;0.30;;;2.40;99.90;;;;;;4986030;28;20034;-75
2023/11/25 07:58:16;;;;;;;1.75;0.50;;;2.50;99.90;;;;;;4989556;28;20034;-76
2023/11/25 08:00:42;;;;;;;1.20;0.70;;;2.50;99.90;;;;;;4983303;28;20089;-76
2023/11/25 08:03:09;;;;;;;0.75;0.40;;;2.50;99.90;;;;;;4986138;28;20447;-76
2023/11/25 08:05:34;;;;;;;1.77;0.77;;;2.60;99.90;;;;;;4985131;28;20033;-76
2023/11/25 08:08:00;;;;;;;0.43;0.40;;;2.60;99.90;;;;;;4987433;28;20034;-76
2023/11/25 08:10:31;;;;;;;1.45;0.45;;;2.60;99.90;;;;;;4986143;28;20030;-76
2023/11/25 08:12:58;;;;;;;0.20;0.20;;;2.60;99.90;;;;;;4985115;28;20145;-76
2023/11/25 08:15:23;;;;;;;0.20;0.20;;;2.70;99.90;;;;;;4985735;28;20038;-76
2023/11/25 08:17:49;;;;;;;0.30;0.30;;;2.70;99.90;;;;;;4986296;28;20031;-76
2023/11/25 08:20:14;;;;;;;0.35;0.32;;;2.70;99.90;;;;;;4989724;28;20077;-76
2023/11/25 08:22:40;;;;;;;1.67;0.35;;;2.80;99.90;;;;;;4989975;28;20306;-76
2023/11/25 08:25:09;;;;;;;0.80;0.30;;;2.80;99.90;;;;;;4989403;28;20391;-76
2023/11/25 08:27:36;;;;;;;0.93;0.40;;;2.80;99.90;;;;;;4991939;28;20019;-76
2023/11/25 08:30:02;;;;;;;0.40;0.30;;;2.90;99.90;;;;;;4988378;28;20043;-75
2023/11/25 08:32:30;;;;;;;0.20;0.20;;;2.90;99.90;;;;;;4989084;28;20066;-76
2023/11/25 08:34:56;;;;;;;0.20;0.20;;;2.90;99.90;;;;;;4991449;28;20038;-76
2023/11/25 08:37:27;;;;;;;0.30;0.30;;;2.90;99.90;;;;;;4980584;28;20046;-73
2023/11/25 08:39:53;;;;;;;0.25;0.25;;;3.00;99.90;;;;;;4982529;28;20038;-74
2023/11/25 08:42:19;;;;;;;0.35;0.30;;;3.00;99.90;;;;;;4988213;28;20122;-74
2023/11/25 08:44:45;;;;;;;0.10;0.10;;;3.00;99.90;;;;;;4987263;28;20109;-74
2023/11/25 08:47:11;;;;;;;0.75;0.38;;;3.00;99.90;;;;;;4977656;28;20121;-73
2023/11/25 08:49:36;;;;;;;0.10;0.10;;;3.00;99.90;;;;;;4983617;28;20550;-74
2023/11/25 08:52:02;;;;;;;0.20;0.20;;;3.10;99.90;;;;;;4987935;28;20030;-74
2023/11/25 08:54:36;;;;;;;0.38;0.38;;;3.20;99.90;;;;;;4987847;28;20038;-74
2023/11/25 08:57:08;;;;;;;0.77;0.50;;;3.20;99.90;;;;;;4987794;28;20031;-76
2023/11/25 08:59:33;;;;;;;0.45;0.30;;;3.20;99.90;;;;;;4987594;28;20030;-75
2023/11/25 09:01:59;;;;;;;0.40;0.30;;;3.20;99.90;;;;;;4989418;28;20104;-76
2023/11/25 09:04:27;;;;;;;0.93;0.50;;;3.30;99.90;;;;;;4988094;28;20027;-76
2023/11/25 09:06:52;;;;;;;1.13;0.40;;;3.30;99.90;;;;;;4990880;28;20363;-75
2023/11/25 09:09:20;;;;;;;0.38;0.30;;;3.40;99.90;;;;;;4993493;28;20038;-75
2023/11/25 09:11:48;;;;;;;0.93;0.30;;;3.40;99.90;;;;;;4993271;28;20413;-76
2023/11/25 09:14:16;;;;;;;1.13;0.50;;;3.40;99.90;;;;;;4990021;28;20039;-76
2023/11/25 09:16:42;;;;;;;2.80;0.60;;;3.50;99.90;;;;;;4989838;28;20387;-76
2023/11/25 09:19:08;;;;;;;3.13;0.60;;;3.50;99.90;;;;;;4994271;28;20474;-79
2023/11/25 09:21:33;;;;;;;1.70;0.30;;;3.60;99.90;;;;;;4990545;28;20056;-78
2023/11/25 09:23:59;;;;;;;0.95;0.50;;;3.60;99.90;;;;;;4987564;28;20498;-78
2023/11/25 09:26:25;;;;;;;0.55;0.50;;;3.60;99.90;;;;;;4992528;28;20034;-77
2023/11/25 09:28:52;;;;;;;0.35;0.32;;;3.70;99.90;;;;;;4991126;28;20076;-77
2023/11/25 09:31:18;;;;;;;1.25;0.40;;;3.60;99.90;;;;;;4992134;28;20053;-75
2023/11/25 09:33:44;;;;;;;1.88;0.70;;;3.60;99.90;;;;;;4992093;28;20459;-75
2023/11/25 09:36:09;;;;;;;1.48;0.70;;;3.80;99.90;;;;;;4988749;28;20069;-77
2023/11/25 09:38:35;;;;;;;1.65;0.68;;;3.80;99.90;;;;;;4983248;28;20043;-77
2023/11/25 09:41:01;;;;;;;1.75;0.52;;;3.80;99.90;;;;;;4988781;28;20424;-77
2023/11/25 09:43:29;;;;;;;0.77;0.63;;;3.90;99.90;;;;;;4986318;28;20041;-76
2023/11/25 09:45:54;;;;;;;1.08;0.63;;;3.90;99.90;;;;;;4993802;28;20030;-76
2023/11/25 09:48:21;;;;;;;1.58;0.60;;;3.90;99.90;;;;;;4992608;28;20283;-76
2023/11/25 09:50:51;;;;;;;1.38;0.73;;;3.90;99.90;;;;;;4992869;28;20046;-76
2023/11/25 09:53:24;;;;;;;1.85;0.85;;;4.10;99.90;;;;;;4993117;28;20045;-75
2023/11/25 09:56:01;;;;;;;1.67;0.73;;;4.20;99.70;;;;;;4995825;28;20026;-75
2023/11/25 09:58:28;;;;;;;2.80;0.85;;;4.30;99.50;;;;;;4985127;28;20022;-75
2023/11/25 10:00:57;;;;;;;1.23;0.73;;;4.30;99.50;;;;;;4986426;28;20018;-75
2023/11/25 10:03:28;;;;;;;1.95;0.63;;;4.40;99.40;;;;;;4991655;28;20034;-77
2023/11/25 10:05:53;;;;;;;0.68;0.35;;;4.50;99.30;;;;;;4988562;28;20026;-77
2023/11/25 10:08:19;;;;;;;1.30;0.40;;;4.50;99.20;;;;;;4994146;28;20053;-77
2023/11/25 10:11:05;;;;;;;0.55;0.40;;;4.50;99.10;;;;;;4990406;28;20113;-77
2023/11/25 10:13:33;;;;;;;0.45;0.30;;;4.50;99.10;;;;;;4989664;28;20038;-76
2023/11/25 10:15:59;;;;;;;0.30;0.30;;;4.60;99.20;;;;;;4986741;28;20027;-76
2023/11/25 10:18:24;;;;;;;0.63;0.40;;;4.60;99.20;;;;;;4989336;28;20160;-77
2023/11/25 10:20:57;;;;;;;0.63;0.50;;;4.60;99.10;;;;;;4982798;28;20106;-77
2023/11/25 10:23:23;;;;;;;0.40;0.40;;;4.60;99.00;;;;;;4991678;28;20511;-76
2023/11/25 10:25:51;;;;;;;1.58;0.57;;;4.50;98.80;;;;;;4991728;28;20058;-77
2023/11/25 10:28:18;;;;;;;1.25;0.68;;;4.50;98.70;;;;;;4980872;28;20411;-77
2023/11/25 10:30:53;;;;;;;2.08;0.50;;;4.50;98.60;;;;;;4981053;28;20030;-77
2023/11/25 10:33:21;;;;;;;1.45;0.50;;;4.60;98.60;;;;;;4989881;28;20030;-77
2023/11/25 10:35:47;;;;;;;1.08;0.70;;;4.60;98.70;;;;;;4984706;28;20093;-77
2023/11/25 10:38:15;;;;;;;1.58;0.60;;;4.60;98.50;;;;;;4986266;28;20046;-77
2023/11/25 10:40:41;;;;;;;3.92;1.00;;;4.60;98.40;;;;;;4991151;28;20034;-77
2023/11/25 10:43:08;;;;;;;4.07;0.45;;;4.70;98.20;;;;;;4984071;28;20372;-76
2023/11/25 10:45:34;;;;;;;0.52;0.52;;;4.90;98.50;;;;;;4989306;28;20054;-76
2023/11/25 10:48:00;;;;;;;1.75;0.77;;;4.90;98.10;;;;;;4990842;28;20527;-77
2023/11/25 10:50:26;;;;;;;1.08;0.63;;;4.90;98.20;;;;;;4992310;28;20129;-77
2023/11/25 10:52:59;;;;;;;1.02;0.68;;;4.70;97.60;;;;;;4985781;28;20113;-77
2023/11/25 10:55:26;;;;;;;0.70;0.50;;;4.70;97.60;;;;;;4987118;28;20076;-77
2023/11/25 10:57:52;;;;;;;1.30;0.60;;;4.80;97.60;;;;;;4989664;28;20049;-77
2023/11/25 11:00:19;;;;;;;1.23;0.63;;;5.10;97.80;;;;;;4991126;28;20038;-77
2023/11/25 11:02:50;;;;;;;0.90;0.50;;;5.20;97.70;;;;;;4986495;28;20568;-77
2023/11/25 11:05:23;;;;;;;;;;;5.20;97.50;;;;;;4990153;28;20026;-77
2023/11/25 11:07:58;;;;;;;2.92;0.73;;;5.10;97.40;;;;;;4992685;28;19967;-77
2023/11/25 11:10:36;;;;;;;2.20;0.80;;;5.00;97.10;;;;;;4991771;28;20035;-77
2023/11/25 11:13:08;;;;;;;0.90;0.77;;;5.00;97.30;;;;;;4988028;28;20033;-77
2023/11/25 11:15:37;;;;;;;3.10;0.80;;;5.10;96.90;;;;;;4990438;28;20471;-77
2023/11/25 11:18:17;;;;;;;1.35;0.93;;;5.20;97.00;;;;;;4995015;28;20066;-77
2023/11/25 11:20:47;;;;;;;2.85;0.85;;;5.10;96.60;;;;;;4991116;28;20023;-77
2023/11/25 11:23:15;;;;;;;1.55;1.02;;;5.00;95.80;;;;;;4996048;28;20041;-77
2023/11/25 11:26:12;;;;;;;2.83;1.52;;;4.90;95.90;;;;;;4991594;28;20088;-77
2023/11/25 11:28:47;;;;;;;1.17;0.77;;;5.10;96.30;;;;;;4989399;28;20109;-77
2023/11/25 11:31:46;;;;;;;5.95;1.48;;;5.30;96.40;;;;;;4989110;28;20105;-77
2023/11/25 11:34:11;;;;;;;1.58;1.15;;;5.60;95.50;;;;;;4991515;28;20030;-77
2023/11/25 11:36:37;;;;;;;1.85;0.75;;;5.60;95.10;;;;;;4988491;28;20482;-77
2023/11/25 11:39:02;;;;;;;1.20;0.65;;;5.40;94.80;;;;;;4988853;28;20034;-77
2023/11/25 11:41:29;;;;;;;1.63;0.70;;;5.30;94.70;;;;;;4991066;28;20038;-77
2023/11/25 11:44:10;;;;;;;1.90;0.90;;;5.40;94.70;;;;;;4989791;28;20112;-78
2023/11/25 11:46:41;;;;;;;2.80;0.88;;;5.40;94.60;;;;;;4989926;28;20066;-78
2023/11/25 11:49:08;;;;;;;1.13;0.60;;;5.40;94.60;;;;;;4991614;28;20061;-78
2023/11/25 11:51:57;;;;;;;5.57;1.05;;;5.30;94.80;;;;;;4984822;28;20054;-78
2023/11/25 11:54:24;;;;;;;1.13;0.40;;;5.30;95.10;;;;;;4991045;28;20034;-78
2023/11/25 11:57:07;;;;;;;2.15;0.30;;;5.60;94.90;;;;;;4991008;28;20596;-78
2023/11/25 11:59:59;;;;;;;1.23;0.47;;;5.80;94.60;;;;;;4989033;28;20531;-78
2023/11/25 12:02:28;;;;;;;0.85;0.40;;;6.00;93.90;;;;;;4987914;28;20034;-78
2023/11/25 12:04:54;;;;;;;1.73;0.50;;;6.10;93.50;;;;;;4991570;28;20026;-78
2023/11/25 12:07:20;;;;;;;1.38;0.47;;;6.10;92.50;;;;;;4988266;28;20253;-78
2023/11/25 12:09:45;;;;;;;2.20;0.55;;;6.40;92.90;;;;;;4990928;28;20128;-78
2023/11/25 12:12:11;;;;;;;0.57;0.40;;;6.50;92.10;;;;;;4989292;28;20106;-78
2023/11/25 12:14:36;;;;;;;0.10;0.10;;;6.50;91.20;;;;;;4985246;28;20042;-78
2023/11/25 12:17:03;;;;;;;1.33;0.70;;;6.60;91.00;;;;;;4985074;28;20468;-78
2023/11/25 12:19:28;;;;;;;0.20;0.20;;;6.50;90.60;;;;;;4990053;28;20023;-79
2023/11/25 12:21:54;;;;;;;1.13;0.50;;;6.50;91.30;;;;;;4979843;28;20486;-78
2023/11/25 12:24:19;;;;;;;1.08;0.40;;;6.50;90.50;;;;;;4993701;28;20033;-79
2023/11/25 12:26:50;;;;;;;1.98;0.43;;;6.40;90.20;;;;;;4983841;28;20387;-78
2023/11/25 12:29:16;;;;;;;1.27;0.55;;;6.50;90.80;;;;;;4983070;28;20498;-78
2023/11/25 12:31:41;;;;;;;0.88;0.47;;;6.20;90.80;;;;;;4986373;28;20438;-78
2023/11/25 12:34:07;;;;;;;3.65;0.50;;;5.90;90.60;;;;;;4988896;28;20034;-77
2023/11/25 12:36:32;;;;;;;2.10;0.68;;;5.80;90.50;;;;;;4991304;28;20045;-77
2023/11/25 12:38:58;;;;;;;0.20;0.20;;;5.70;91.60;;;;;;4993224;28;20040;-77
2023/11/25 12:41:23;;;;;;;1.23;0.25;;;5.70;91.20;;;;;;5002225;28;20399;-77
2023/11/25 12:44:11;;;;;;;0.90;0.50;;;5.70;90.60;;;;;;4991741;28;20030;-77
2023/11/25 12:46:38;;;;;;;0.85;0.43;;;5.60;90.70;;;;;;4986525;28;20072;-77
2023/11/25 12:49:23;;;;;;;1.92;0.50;;;5.60;90.40;;;;;;4988931;28;20377;-75
2023/11/25 12:51:50;;;;;;;3.17;0.70;;;5.60;90.70;;;;;;4988504;28;20503;-75
2023/11/25 12:54:16;;;;;;;4.18;0.68;;;5.60;90.60;;;;;;4987345;28;20034;-76